Time;durP1;ratioP1;P1;durP2;ratioP2;P2;SDS_P1;SDS_P2;PMS_P1;PMS_P2;Temp;Humidity;BMP_temperature;BMP_pressure;BME280_temperature;BME280_humidity;BME280_pressure;Samples;Min_cycle;Max_cycle;Signal;HPM_P1;HPM_P2
2023/08/02 00:01:30;;;;;;;0.10;0.10;;;;;;;14.26;100.00;99978.94;5054249;28;20033;-50
2023/08/02 00:03:55;;;;;;;0.10;0.10;;;;;;;14.24;100.00;99972.88;5053482;28;20028;-48
2023/08/02 00:06:20;;;;;;;0.10;0.10;;;;;;;14.22;100.00;99967.69;5054484;28;20041;-49
2023/08/02 00:08:46;;;;;;;0.10;0.10;;;;;;;14.21;100.00;99967.69;5054199;28;20041;-49
2023/08/02 00:11:17;;;;;;;0.10;0.10;;;;;;;14.16;100.00;99978.94;5053575;28;20460;-49
2023/08/02 00:13:43;;;;;;;0.10;0.10;;;;;;;14.18;100.00;99980.63;5053851;28;20041;-48
2023/08/02 00:16:09;;;;;;;0.10;0.10;;;;;;;14.13;100.00;99978.06;5054090;28;20031;-46
2023/08/02 00:18:35;;;;;;;0.10;0.10;;;;;;;14.10;100.00;99988.41;5052778;28;20481;-48
2023/08/02 00:21:00;;;;;;;0.20;0.20;;;;;;;14.07;100.00;99993.59;5054057;28;20025;-49
2023/08/02 00:23:25;;;;;;;0.10;0.10;;;;;;;14.04;100.00;99984.09;5053941;28;20032;-49
2023/08/02 00:25:51;;;;;;;0.10;0.10;;;;;;;13.98;100.00;99978.88;5053358;28;20032;-50
2023/08/02 00:28:17;;;;;;;0.10;0.10;;;;;;;13.97;100.00;99979.78;5053982;28;20025;-49
2023/08/02 00:30:47;;;;;;;0.10;0.10;;;;;;;13.95;100.00;99977.16;5052797;28;20500;-49
2023/08/02 00:33:12;;;;;;;0.10;0.10;;;;;;;13.91;100.00;99987.53;5054081;28;20024;-48
2023/08/02 00:35:50;;;;;;;0.10;0.10;;;;;;;13.91;100.00;99982.34;5053416;28;20017;-50
2023/08/02 00:38:16;;;;;;;0.10;0.10;;;;;;;13.86;100.00;99979.72;5052892;28;20031;-49
2023/08/02 00:40:42;;;;;;;0.10;0.10;;;;;;;13.85;100.00;99972.81;5053075;28;20021;-50
2023/08/02 00:43:08;;;;;;;0.10;0.10;;;;;;;13.83;100.00;99959.88;5053266;28;20049;-49
2023/08/02 00:45:33;;;;;;;0.10;0.10;;;;;;;13.85;100.00;99951.25;5052358;28;20051;-46
2023/08/02 00:47:59;;;;;;;0.10;0.10;;;;;;;13.86;100.00;99958.16;5053695;28;20025;-49
2023/08/02 00:50:27;;;;;;;0.10;0.10;;;;;;;13.85;100.00;99951.25;5053330;28;20071;-47
2023/08/02 00:52:53;;;;;;;0.10;0.10;;;;;;;13.91;100.00;99941.75;5052747;28;20037;-48
2023/08/02 00:55:19;;;;;;;0.10;0.10;;;;;;;13.96;100.00;99940.03;5053458;28;20020;-50
2023/08/02 00:57:45;;;;;;;0.10;0.10;;;;;;;14.00;100.00;99922.78;5053100;28;20032;-47
2023/08/02 01:00:11;;;;;;;0.10;0.10;;;;;;;14.02;100.00;99923.66;5052312;28;20082;-47
2023/08/02 01:02:36;;;;;;;0.10;0.10;;;;;;;14.01;100.00;99911.56;5052987;28;20380;-49
2023/08/02 01:05:03;;;;;;;0.10;0.10;;;;;;;14.05;100.00;99922.78;5053427;28;20472;-49
2023/08/02 01:07:47;;;;;;;0.10;0.10;;;;;;;14.10;100.00;99921.03;5052146;28;20036;-49
2023/08/02 01:10:19;;;;;;;0.10;0.10;;;;;;;14.13;100.00;99914.13;5053139;28;20544;-50
2023/08/02 01:12:47;;;;;;;0.10;0.10;;;;;;;14.18;100.00;99918.44;5052657;28;20029;-46
2023/08/02 01:15:14;;;;;;;0.10;0.10;;;;;;;14.22;100.00;99925.38;5053266;28;20032;-47
2023/08/02 01:17:42;;;;;;;0.10;0.10;;;;;;;14.25;100.00;99923.63;5052633;28;20029;-49
2023/08/02 01:20:08;;;;;;;0.10;0.10;;;;;;;14.27;100.00;99926.25;5052201;28;20041;-48
2023/08/02 01:22:33;;;;;;;0.10;0.10;;;;;;;14.32;100.00;99927.94;5052708;28;20020;-49
2023/08/02 01:24:59;;;;;;;0.10;0.10;;;;;;;14.36;100.00;99923.63;5052825;28;20056;-49
2023/08/02 01:27:31;;;;;;;0.10;0.10;;;;;;;14.39;100.00;99926.22;5051681;28;20017;-47
2023/08/02 01:29:59;;;;;;;0.10;0.10;;;;;;;14.42;100.00;99927.94;5053038;28;20092;-50
2023/08/02 01:32:24;;;;;;;;;;;;;;;14.52;100.00;99921.03;5052852;28;20369;-50
2023/08/02 01:34:51;;;;;;;0.20;0.20;;;;;;;14.48;100.00;99914.97;5052094;28;20422;-49
2023/08/02 01:37:16;;;;;;;0.08;0.08;;;;;;;14.51;100.00;99916.69;5052699;28;20477;-46
2023/08/02 01:39:42;;;;;;;0.10;0.10;;;;;;;14.52;100.00;99914.09;5052416;28;20028;-49
2023/08/02 01:42:10;;;;;;;0.10;0.10;;;;;;;14.54;100.00;99907.19;5052207;28;20103;-49
2023/08/02 01:44:35;;;;;;;0.10;0.10;;;;;;;14.55;100.00;99908.03;5052145;28;20132;-50
2023/08/02 01:47:00;;;;;;;0.10;0.10;;;;;;;14.57;100.00;99894.22;5052712;28;20124;-49
2023/08/02 01:49:26;;;;;;;0.10;0.10;;;;;;;14.59;100.00;99883.81;5051603;28;20099;-49
2023/08/02 01:51:51;;;;;;;0.10;0.10;;;;;;;14.59;100.00;99887.31;5052579;28;20029;-49
2023/08/02 01:54:16;;;;;;;0.10;0.10;;;;;;;14.60;100.00;99885.56;5056437;28;20108;-49
2023/08/02 01:56:42;;;;;;;0.10;0.10;;;;;;;14.59;100.00;99882.13;5055633;28;20480;-48
2023/08/02 01:59:07;;;;;;;0.10;0.10;;;;;;;14.60;100.00;99875.19;5056778;28;20063;-47
2023/08/02 02:01:32;;;;;;;0.10;0.10;;;;;;;14.59;100.00;99868.28;5056515;28;20033;-49
2023/08/02 02:03:58;;;;;;;0.10;0.10;;;;;;;14.58;100.00;99864.81;5055879;28;20027;-49
2023/08/02 02:06:23;;;;;;;0.10;0.10;;;;;;;14.55;100.00;99856.19;5056424;28;20048;-49
2023/08/02 02:08:48;;;;;;;0.10;0.10;;;;;;;14.52;100.00;99846.69;5056578;28;20021;-50
2023/08/02 02:11:14;;;;;;;0.13;0.13;;;;;;;14.49;100.00;99838.94;5055943;28;20108;-48
2023/08/02 02:13:39;;;;;;;0.10;0.10;;;;;;;14.44;100.00;99825.13;5056360;28;20472;-50
2023/08/02 02:16:04;;;;;;;0.10;0.10;;;;;;;14.40;100.00;99836.38;5056366;28;20032;-48
2023/08/02 02:18:30;;;;;;;0.10;0.10;;;;;;;14.40;100.00;99836.38;5055722;28;20430;-50
2023/08/02 02:20:55;;;;;;;0.10;0.10;;;;;;;14.37;100.00;99826.88;5056421;28;20412;-51
2023/08/02 02:23:21;;;;;;;0.10;0.10;;;;;;;14.40;100.00;99818.22;5055345;28;20029;-49
2023/08/02 02:25:46;;;;;;;0.10;0.10;;;;;;;14.41;100.00;99814.72;5056203;28;20017;-50
2023/08/02 02:28:12;;;;;;;0.10;0.10;;;;;;;14.42;100.00;99803.50;5056402;28;20036;-51
2023/08/02 02:30:37;;;;;;;0.00;0.00;;;;;;;14.45;100.00;99795.75;5055182;28;20017;-50
2023/08/02 02:33:03;;;;;;;0.10;0.10;;;;;;;14.46;100.00;99787.94;5056145;28;20384;-49
2023/08/02 02:35:28;;;;;;;0.10;0.10;;;;;;;14.46;100.00;99774.97;5055893;28;20029;-48
2023/08/02 02:37:54;;;;;;;0.10;0.10;;;;;;;14.46;100.00;99774.09;5055106;28;20488;-48
2023/08/02 02:40:19;;;;;;;0.10;0.10;;;;;;;14.46;100.00;99785.34;5056189;28;20108;-50
2023/08/02 02:42:44;;;;;;;0.10;0.10;;;;;;;14.46;100.00;99779.28;5055628;28;20017;-47
2023/08/02 02:45:10;;;;;;;0.10;0.10;;;;;;;14.46;100.00;99769.81;5055220;28;20052;-50
2023/08/02 02:47:36;;;;;;;0.10;0.10;;;;;;;14.47;100.00;99760.28;5055599;28;20020;-49
2023/08/02 02:50:02;;;;;;;0.10;0.10;;;;;;;14.48;100.00;99767.19;5055828;28;20057;-51
2023/08/02 02:52:27;;;;;;;0.10;0.10;;;;;;;14.48;100.00;99778.41;5054637;28;20033;-49
2023/08/02 02:54:53;;;;;;;0.10;0.10;;;;;;;14.51;100.00;99779.28;5055645;28;20037;-50
2023/08/02 02:57:18;;;;;;;0.10;0.10;;;;;;;14.53;100.00;99775.81;5055690;28;20028;-50
2023/08/02 02:59:43;;;;;;;0.10;0.10;;;;;;;14.52;100.00;99774.09;5054411;28;20124;-47
2023/08/02 03:02:09;;;;;;;0.10;0.10;;;;;;;14.53;100.00;99755.06;5055713;28;20032;-49
2023/08/02 03:04:34;;;;;;;0.10;0.10;;;;;;;14.55;100.00;99758.53;5054558;28;20034;-50
2023/08/02 03:07:00;;;;;;;0.10;0.10;;;;;;;14.57;100.00;99755.94;5054698;28;20044;-49
2023/08/02 03:09:25;;;;;;;0.10;0.10;;;;;;;14.58;100.00;99742.09;5055333;28;20029;-49
2023/08/02 03:11:50;;;;;;;0.10;0.10;;;;;;;14.59;100.00;99730.84;5055568;28;20048;-49
2023/08/02 03:14:16;;;;;;;0.10;0.10;;;;;;;14.59;100.00;99713.56;5054478;28;20423;-50
2023/08/02 03:16:44;;;;;;;0.10;0.10;;;;;;;14.59;100.00;99697.13;5055090;28;20384;-48
2023/08/02 03:19:10;;;;;;;0.10;0.10;;;;;;;14.61;100.00;99703.19;5055287;28;20029;-50
2023/08/02 03:21:35;;;;;;;0.10;0.10;;;;;;;14.62;100.00;99686.75;5054078;28;20055;-51
2023/08/02 03:24:01;;;;;;;0.05;0.05;;;;;;;14.62;100.00;99681.56;5055388;28;20108;-49
2023/08/02 03:26:26;;;;;;;0.20;0.20;;;;;;;14.64;100.00;99685.91;5054365;28;20074;-47
2023/08/02 03:28:51;;;;;;;0.10;0.10;;;;;;;14.63;100.00;99676.38;5055184;28;20107;-49
2023/08/02 03:31:16;;;;;;;0.10;0.10;;;;;;;14.63;100.00;99678.13;5055146;28;20053;-47
2023/08/02 03:33:42;;;;;;;0.10;0.10;;;;;;;14.62;100.00;99664.28;5053832;28;20119;-47
2023/08/02 03:36:07;;;;;;;0.10;0.10;;;;;;;14.62;100.00;99671.19;5055078;28;20103;-50
2023/08/02 03:38:33;;;;;;;0.10;0.10;;;;;;;14.61;100.00;99677.25;5054447;28;20021;-49
2023/08/02 03:40:58;;;;;;;0.10;0.10;;;;;;;14.61;100.00;99666.88;5054182;28;20032;-49
2023/08/02 03:43:23;;;;;;;0.10;0.10;;;;;;;14.60;100.00;99672.94;5054306;28;20053;-50
2023/08/02 03:45:49;;;;;;;0.10;0.10;;;;;;;14.62;100.00;99671.19;5054922;28;20025;-49
2023/08/02 03:48:15;;;;;;;0.10;0.10;;;;;;;14.59;100.00;99658.22;5054084;28;20033;-50
2023/08/02 03:50:41;;;;;;;0.10;0.10;;;;;;;14.59;100.00;99653.06;5054374;28;20029;-48
2023/08/02 03:53:06;;;;;;;0.10;0.10;;;;;;;14.61;100.00;99648.72;5054515;28;20036;-50
2023/08/02 03:55:32;;;;;;;0.10;0.10;;;;;;;14.60;100.00;99641.81;5053803;28;20139;-49
2023/08/02 03:57:57;;;;;;;0.10;0.10;;;;;;;14.60;100.00;99636.63;5054300;28;20457;-50
2023/08/02 04:00:23;;;;;;;0.10;0.10;;;;;;;14.60;100.00;99632.31;5054242;28;20060;-49
2023/08/02 04:02:48;;;;;;;0.10;0.10;;;;;;;14.61;100.00;99628.00;5053540;28;20029;-49
2023/08/02 04:05:13;;;;;;;0.10;0.10;;;;;;;14.63;100.00;99626.25;5054206;28;20484;-46
2023/08/02 04:07:39;;;;;;;0.10;0.10;;;;;;;14.62;100.00;99614.16;5053965;28;20075;-50
2023/08/02 04:10:05;;;;;;;0.10;0.10;;;;;;;14.61;100.00;99615.88;5053465;28;20112;-49
2023/08/02 04:12:30;;;;;;;0.10;0.10;;;;;;;14.59;100.00;99603.78;5053773;28;20029;-50
2023/08/02 04:14:55;;;;;;;0.10;0.10;;;;;;;14.58;100.00;99608.13;5054074;28;20032;-49
2023/08/02 04:17:21;;;;;;;0.10;0.10;;;;;;;14.57;100.00;99595.19;5053345;28;20032;-49
2023/08/02 04:19:46;;;;;;;0.20;0.20;;;;;;;14.56;100.00;99589.09;5053688;28;20055;-50
2023/08/02 04:22:11;;;;;;;0.10;0.10;;;;;;;14.56;100.00;99577.91;5053969;28;20060;-50
2023/08/02 04:24:37;;;;;;;0.10;0.10;;;;;;;14.56;100.00;99583.06;5052836;28;20380;-50
2023/08/02 04:27:03;;;;;;;0.10;0.10;;;;;;;14.55;100.00;99576.16;5054127;28;20032;-50
2023/08/02 04:29:29;;;;;;;0.10;0.10;;;;;;;14.54;100.00;99564.94;5053682;28;20142;-51
2023/08/02 04:31:54;;;;;;;0.10;0.10;;;;;;;14.56;100.00;99562.34;5053274;28;20016;-47
2023/08/02 04:34:19;;;;;;;0.10;0.10;;;;;;;14.53;100.00;99546.81;5053891;28;20032;-50
2023/08/02 04:36:44;;;;;;;0.10;0.10;;;;;;;14.54;100.00;99539.03;5053035;28;20021;-46
2023/08/02 04:39:11;;;;;;;0.10;0.10;;;;;;;14.56;100.00;99536.41;5053632;28;20067;-49
2023/08/02 04:41:36;;;;;;;0.10;0.10;;;;;;;14.55;100.00;99532.09;5053587;28;20025;-49
2023/08/02 04:44:01;;;;;;;0.10;0.10;;;;;;;14.55;100.00;99521.72;5052705;28;20041;-50
2023/08/02 04:46:30;;;;;;;0.10;0.10;;;;;;;14.55;100.00;99513.94;5053342;28;20060;-50
2023/08/02 04:48:56;;;;;;;0.10;0.10;;;;;;;14.55;100.00;99509.63;5053408;28;20481;-50
2023/08/02 04:51:21;;;;;;;0.10;0.10;;;;;;;14.56;100.00;99505.28;5052750;28;20056;-46
2023/08/02 04:53:49;;;;;;;0.10;0.10;;;;;;;14.56;100.00;99487.16;5053323;28;20031;-50
2023/08/02 04:56:15;;;;;;;0.10;0.10;;;;;;;14.57;100.00;99487.13;5053359;28;20447;-50
2023/08/02 04:58:42;;;;;;;0.10;0.10;;;;;;;14.57;100.00;99481.94;5052278;28;20063;-50
2023/08/02 05:01:07;;;;;;;0.10;0.10;;;;;;;14.58;100.00;99480.22;5053342;28;20032;-49
2023/08/02 05:03:34;;;;;;;0.10;0.10;;;;;;;14.58;100.00;99473.31;5052978;28;20025;-46
2023/08/02 05:06:04;;;;;;;0.10;0.10;;;;;;;14.58;100.00;99462.09;5051889;28;20032;-48
2023/08/02 05:08:31;;;;;;;0.10;0.10;;;;;;;14.58;100.00;99469.84;5053110;28;20060;-46
2023/08/02 05:10:56;;;;;;;0.10;0.10;;;;;;;14.59;100.00;99464.66;5053308;28;20048;-45
2023/08/02 05:13:26;;;;;;;0.10;0.10;;;;;;;14.57;100.00;99460.34;5052312;28;20386;-48
2023/08/02 05:15:53;;;;;;;0.10;0.10;;;;;;;14.59;100.00;99453.41;5053097;28;20353;-50
2023/08/02 05:18:18;;;;;;;0.10;0.10;;;;;;;14.55;100.00;99456.91;5053038;28;20039;-48
2023/08/02 05:20:43;;;;;;;0.10;0.10;;;;;;;14.53;100.00;99450.91;5052161;28;20469;-46
2023/08/02 05:23:09;;;;;;;0.20;0.20;;;;;;;14.53;100.00;99441.38;5053160;28;20056;-49
2023/08/02 05:25:34;;;;;;;0.10;0.10;;;;;;;14.50;100.00;99433.63;5052859;28;20036;-50
2023/08/02 05:28:00;;;;;;;0.10;0.10;;;;;;;14.51;100.00;99434.47;5051722;28;20041;-47
2023/08/02 05:30:30;;;;;;;0.10;0.10;;;;;;;14.46;100.00;99435.38;5052622;28;20064;-46
2023/08/02 05:32:56;;;;;;;0.20;0.20;;;;;;;14.46;100.00;99414.66;5052761;28;20033;-47
2023/08/02 05:35:25;;;;;;;0.10;0.10;;;;;;;14.45;100.00;99409.50;5052244;28;20021;-49
2023/08/02 05:37:51;;;;;;;0.10;0.10;;;;;;;14.44;100.00;99403.44;5052920;28;20146;-46
2023/08/02 05:40:17;;;;;;;0.10;0.10;;;;;;;14.44;100.00;99394.81;5051828;28;20081;-48
2023/08/02 05:42:42;;;;;;;0.10;0.10;;;;;;;14.43;100.00;99385.31;5052129;28;20112;-46
2023/08/02 05:45:09;;;;;;;0.10;0.10;;;;;;;14.43;100.00;99380.97;5052593;28;20029;-46
2023/08/02 05:47:35;;;;;;;0.10;0.10;;;;;;;14.43;100.00;99370.59;5051530;28;20036;-45
2023/08/02 05:50:00;;;;;;;0.20;0.20;;;;;;;14.41;100.00;99372.38;5052777;28;20021;-51
2023/08/02 05:52:25;;;;;;;0.10;0.10;;;;;;;14.43;100.00;99365.41;5052090;28;20037;-48
2023/08/02 05:54:51;;;;;;;0.10;0.10;;;;;;;14.46;100.00;99364.53;5051787;28;20105;-47
2023/08/02 05:57:16;;;;;;;0.10;0.10;;;;;;;14.43;100.00;99357.63;5052505;28;20032;-46
2023/08/02 05:59:42;;;;;;;0.13;0.13;;;;;;;14.43;100.00;99354.19;5051975;28;20575;-48
2023/08/02 06:02:07;;;;;;;0.10;0.10;;;;;;;14.40;100.00;99342.13;5051490;28;20029;-51
2023/08/02 06:04:35;;;;;;;0.10;0.10;;;;;;;14.42;100.00;99322.25;5052332;28;20021;-50
2023/08/02 06:07:02;;;;;;;0.10;0.10;;;;;;;14.40;100.00;99316.22;5052628;28;20032;-47
2023/08/02 06:09:27;;;;;;;0.10;0.10;;;;;;;14.45;100.00;99310.97;5051205;28;20480;-48
2023/08/02 06:11:52;;;;;;;0.10;0.10;;;;;;;14.45;100.00;99293.69;5052341;28;20017;-47
2023/08/02 06:14:18;;;;;;;0.10;0.10;;;;;;;14.42;100.00;99296.31;5052238;28;20124;-46
2023/08/02 06:16:43;;;;;;;0.10;0.10;;;;;;;14.43;100.00;99289.41;5050971;28;20029;-49
2023/08/02 06:19:08;;;;;;;0.10;0.10;;;;;;;14.46;100.00;99278.97;5052258;28;20029;-50
2023/08/02 06:21:34;;;;;;;0.10;0.10;;;;;;;14.47;100.00;99278.09;5052090;28;20063;-49
2023/08/02 06:24:00;;;;;;;0.10;0.10;;;;;;;14.46;100.00;99277.25;5051580;28;20107;-46
2023/08/02 06:26:26;;;;;;;0.10;0.10;;;;;;;14.46;100.00;99264.31;5051889;28;20017;-48
2023/08/02 06:28:52;;;;;;;0.10;0.10;;;;;;;14.51;100.00;99253.00;5052118;28;20021;-49
2023/08/02 06:31:17;;;;;;;0.10;0.10;;;;;;;14.51;100.00;99245.25;5051140;28;20029;-50
2023/08/02 06:33:42;;;;;;;0.10;0.10;;;;;;;14.51;100.00;99246.09;5051933;28;20473;-49
2023/08/02 06:36:08;;;;;;;0.10;0.10;;;;;;;14.51;100.00;99243.50;5052234;28;20085;-50
2023/08/02 06:38:33;;;;;;;0.10;0.10;;;;;;;14.52;100.00;99224.47;5050906;28;20032;-47
2023/08/02 06:41:02;;;;;;;0.10;0.10;;;;;;;14.53;100.00;99227.94;5055127;28;20036;-50
2023/08/02 06:43:27;;;;;;;0.10;0.10;;;;;;;14.54;100.00;99221.84;5054457;28;20095;-49
2023/08/02 06:45:52;;;;;;;0.08;0.08;;;;;;;14.55;100.00;99208.91;5055605;28;20021;-51
2023/08/02 06:48:19;;;;;;;0.10;0.10;;;;;;;14.56;100.00;99209.75;5055784;28;20078;-50
2023/08/02 06:50:45;;;;;;;0.10;0.10;;;;;;;14.59;100.00;99196.72;5054714;28;20036;-50
2023/08/02 06:53:10;;;;;;;0.10;0.10;;;;;;;14.58;100.00;99182.06;5055858;28;20263;-49
2023/08/02 06:55:36;;;;;;;0.10;0.10;;;;;;;14.60;100.00;99180.31;5055334;28;20021;-50
2023/08/02 06:58:01;;;;;;;0.10;0.10;;;;;;;14.62;100.00;99168.19;5054518;28;20025;-45
2023/08/02 07:00:29;;;;;;;0.10;0.10;;;;;;;14.68;100.00;99164.66;5054896;28;20025;-48
2023/08/02 07:02:58;;;;;;;0.10;0.10;;;;;;;14.68;100.00;99159.47;5055256;28;20373;-46
2023/08/02 07:05:25;;;;;;;0.10;0.10;;;;;;;14.68;100.00;99147.41;5054606;28;20053;-50
2023/08/02 07:07:51;;;;;;;0.10;0.10;;;;;;;14.68;100.00;99144.81;5055353;28;20020;-49
2023/08/02 07:10:16;;;;;;;0.10;0.10;;;;;;;14.66;100.00;99138.78;5055442;28;20522;-45
2023/08/02 07:12:42;;;;;;;0.10;0.10;;;;;;;14.69;100.00;99130.94;5054300;28;21077;-47
2023/08/02 07:15:07;;;;;;;0.10;0.10;;;;;;;14.67;100.00;99130.13;5055170;28;20031;-50
2023/08/02 07:17:33;;;;;;;0.10;0.10;;;;;;;14.71;100.00;99131.78;5054879;28;20025;-49
2023/08/02 07:19:58;;;;;;;0.00;0.00;;;;;;;14.73;100.00;99126.56;5054430;28;20068;-50
2023/08/02 07:22:23;;;;;;;0.10;0.10;;;;;;;14.71;100.00;99124.00;5054875;28;20068;-51
2023/08/02 07:24:49;;;;;;;0.20;0.20;;;;;;;14.78;100.00;99114.38;5055225;28;20116;-46
2023/08/02 07:27:14;;;;;;;0.10;0.10;;;;;;;14.76;100.00;99117.00;5054349;28;20108;-47
2023/08/02 07:29:39;;;;;;;0.10;0.10;;;;;;;14.80;100.00;99115.22;5054501;28;20116;-48
2023/08/02 07:32:05;;;;;;;0.10;0.10;;;;;;;14.78;100.00;99115.25;5054842;28;20040;-48
2023/08/02 07:34:33;;;;;;;0.10;0.10;;;;;;;14.80;100.00;99110.88;5053944;28;20040;-50
2023/08/02 07:36:58;;;;;;;0.10;0.10;;;;;;;14.81;100.00;99104.81;5054763;28;20381;-47
2023/08/02 07:39:23;;;;;;;0.10;0.10;;;;;;;14.84;100.00;99100.47;5054447;28;20472;-48
2023/08/02 07:41:49;;;;;;;0.10;0.10;;;;;;;14.87;100.00;99093.47;5054037;28;20499;-47
2023/08/02 07:44:14;;;;;;;0.10;0.10;;;;;;;14.88;100.00;99089.16;5054474;28;20037;-49
2023/08/02 07:46:39;;;;;;;0.10;0.10;;;;;;;14.93;100.00;99075.22;5053765;28;20396;-51
2023/08/02 07:49:05;;;;;;;0.10;0.10;;;;;;;14.98;100.00;99072.56;5054772;28;20060;-48
2023/08/02 07:51:30;;;;;;;0.10;0.10;;;;;;;15.05;100.00;99071.56;5053901;28;20082;-50
2023/08/02 07:53:55;;;;;;;0.15;0.15;;;;;;;15.11;100.00;99068.03;5053957;28;20045;-51
2023/08/02 07:56:21;;;;;;;0.10;0.10;;;;;;;15.18;100.00;99061.00;5054637;28;20436;-48
2023/08/02 07:58:46;;;;;;;0.10;0.10;;;;;;;15.23;100.00;99053.97;5054181;28;20033;-50
2023/08/02 08:01:12;;;;;;;0.10;0.10;;;;;;;15.26;100.00;99048.72;5053685;28;20111;-50
2023/08/02 08:03:37;;;;;;;0.10;0.10;;;;;;;15.29;100.00;99051.28;5054195;28;20111;-47
2023/08/02 08:06:13;;;;;;;0.10;0.10;;;;;;;15.31;100.00;99044.28;5054542;28;20029;-49
2023/08/02 08:08:40;;;;;;;0.10;0.10;;;;;;;15.35;100.00;99050.28;5053438;28;20100;-46
2023/08/02 08:11:05;;;;;;;0.20;0.20;;;;;;;15.42;100.00;99039.75;5054364;28;20048;-47
2023/08/02 08:13:30;;;;;;;0.10;0.10;;;;;;;15.47;100.00;99035.34;5053946;28;20499;-46
2023/08/02 08:15:56;;;;;;;0.10;0.10;;;;;;;15.46;100.00;99027.59;5053679;28;20515;-49
2023/08/02 08:18:21;;;;;;;0.10;0.10;;;;;;;15.51;100.00;99030.94;5054340;28;20380;-50
2023/08/02 08:20:47;;;;;;;0.10;0.10;;;;;;;15.52;100.00;99022.28;5054006;28;20433;-52
2023/08/02 08:23:12;;;;;;;0.10;0.10;;;;;;;15.52;100.00;99027.47;5053392;28;20021;-47
2023/08/02 08:25:37;;;;;;;0.10;0.10;;;;;;;15.52;100.00;99026.59;5053810;28;20040;-50
2023/08/02 08:28:03;;;;;;;0.10;0.10;;;;;;;15.55;100.00;99016.16;5053987;28;20029;-46
2023/08/02 08:30:28;;;;;;;0.10;0.10;;;;;;;15.58;100.00;99016.09;5053111;28;20037;-46
2023/08/02 08:32:54;;;;;;;0.10;0.10;;;;;;;15.65;100.00;99020.28;5053920;28;20099;-49
2023/08/02 08:35:19;;;;;;;0.10;0.10;;;;;;;15.72;100.00;99024.44;5053897;28;20056;-50
2023/08/02 08:37:48;;;;;;;0.10;0.10;;;;;;;15.77;100.00;99017.41;5052661;28;20072;-50
2023/08/02 08:40:17;;;;;;;0.10;0.10;;;;;;;15.80;100.00;99019.97;5053639;28;20033;-51
2023/08/02 08:42:49;;;;;;;0.10;0.10;;;;;;;15.84;100.00;99019.91;5053163;28;20437;-50
2023/08/02 08:45:18;;;;;;;0.10;0.10;;;;;;;15.86;100.00;99020.75;5053073;28;20102;-49
2023/08/02 08:47:45;;;;;;;0.10;0.10;;;;;;;15.93;100.00;99004.13;5053399;28;20021;-45
2023/08/02 08:50:10;;;;;;;0.10;0.10;;;;;;;16.11;100.00;99010.66;5052926;28;20025;-50
2023/08/02 08:52:39;;;;;;;0.10;0.10;;;;;;;16.24;100.00;99001.72;5053236;28;20369;-49
2023/08/02 08:55:06;;;;;;;0.10;0.10;;;;;;;16.39;100.00;99005.66;5053267;28;20436;-50
2023/08/02 08:57:32;;;;;;;;;;;;;;;16.53;100.00;99001.91;5052903;28;20036;-45
2023/08/02 08:59:57;;;;;;;0.10;0.10;;;;;;;16.65;100.00;98995.53;5053477;28;19912;-49
2023/08/02 09:02:23;;;;;;;0.10;0.10;;;;;;;16.69;100.00;99000.59;5052458;28;20384;-50
2023/08/02 09:04:51;;;;;;;0.10;0.10;;;;;;;16.90;100.00;98996.66;5052371;28;20029;-50
2023/08/02 09:07:16;;;;;;;0.00;0.00;;;;;;;17.06;100.00;98976.28;5053240;28;20388;-47
2023/08/02 09:09:42;;;;;;;0.08;0.08;;;;;;;17.34;100.00;98977.25;5052804;28;20472;-50
2023/08/02 09:12:08;;;;;;;0.00;0.00;;;;;;;17.44;100.00;98983.91;5052533;28;20385;-49
2023/08/02 09:14:33;;;;;;;0.00;0.00;;;;;;;17.55;100.00;98981.00;5052714;28;20031;-50
2023/08/02 09:17:03;;;;;;;0.00;0.00;;;;;;;17.72;100.00;98981.34;5053145;28;20025;-47
2023/08/02 09:19:34;;;;;;;0.00;0.00;;;;;;;17.82;100.00;98978.47;5051840;28;20507;-49
2023/08/02 09:22:14;;;;;;;0.00;0.00;;;;;;;17.92;100.00;98967.72;5052912;28;20036;-49
2023/08/02 09:24:44;;;;;;;0.00;0.00;;;;;;;17.93;100.00;98968.59;5052840;28;20044;-45
2023/08/02 09:27:14;;;;;;;0.00;0.00;;;;;;;18.01;100.00;98955.34;5051946;28;20381;-49
2023/08/02 09:29:51;;;;;;;0.03;0.03;;;;;;;18.07;100.00;98956.00;5052625;28;20068;-45
2023/08/02 09:32:19;;;;;;;0.00;0.00;;;;;;;18.07;100.00;98956.00;5052119;28;20025;-48
2023/08/02 09:34:46;;;;;;;0.00;0.00;;;;;;;18.21;100.00;98939.06;5052582;28;20170;-45
2023/08/02 09:37:16;;;;;;;0.00;0.00;;;;;;;18.15;100.00;98941.88;5052880;28;20104;-47
2023/08/02 09:39:51;;;;;;;0.05;0.05;;;;;;;18.16;100.00;98949.63;5051653;28;20032;-45
2023/08/02 09:42:20;;;;;;;0.00;0.00;;;;;;;18.13;100.00;98943.66;5052569;28;20037;-50
2023/08/02 09:45:12;;;;;;;0.00;0.00;;;;;;;18.15;100.00;98940.09;5052062;28;20167;-48
2023/08/02 09:47:37;;;;;;;0.00;0.00;;;;;;;18.15;100.00;98941.88;5049302;28;20061;-50
2023/08/02 09:50:08;;;;;;;0.10;0.10;;;;;;;18.24;100.00;98936.34;5052901;28;20048;-51
2023/08/02 09:52:35;;;;;;;0.00;0.00;;;;;;;18.34;100.00;98932.53;5052332;28;20028;-47
2023/08/02 09:55:01;;;;;;;0.00;0.00;;;;;;;18.52;100.00;98922.41;5051774;28;20064;-47
2023/08/02 09:57:28;;;;;;;0.00;0.00;;;;;;;18.71;100.00;98913.03;5052096;28;20108;-50
2023/08/02 09:59:57;;;;;;;0.00;0.00;;;;;;;18.95;100.00;98907.88;5052679;28;20037;-45
2023/08/02 10:02:25;;;;;;;0.00;0.00;;;;;;;19.27;100.00;98908.47;5051577;28;20074;-45
2023/08/02 10:04:53;;;;;;;;;;;;;;;19.42;100.00;98920.09;5053127;28;20029;-47
2023/08/02 10:07:20;;;;;;;0.00;0.00;;;;;;;19.46;100.00;98923.44;5052393;28;19913;-50
2023/08/02 10:09:45;;;;;;;0.00;0.00;;;;;;;19.55;100.00;98918.72;5052232;28;20048;-49
2023/08/02 10:12:17;;;;;;;0.00;0.00;;;;;;;19.54;100.00;98921.41;5052362;28;20381;-48
2023/08/02 10:14:43;;;;;;;0.00;0.00;;;;;;;19.54;100.00;98916.16;5054067;28;20029;-46
2023/08/02 10:17:09;;;;;;;0.00;0.00;;;;;;;19.63;100.00;98921.03;5056333;28;20032;-47
2023/08/02 10:19:35;;;;;;;0.00;0.00;;;;;;;19.58;100.00;98910.75;5056052;28;20175;-50
2023/08/02 10:22:04;;;;;;;0.00;0.00;;;;;;;19.44;100.00;98902.59;5055630;28;20104;-50
2023/08/02 10:24:29;;;;;;;0.00;0.00;;;;;;;19.61;100.00;98888.88;5056220;28;20029;-45
2023/08/02 10:26:56;;;;;;;0.00;0.00;;;;;;;19.74;100.00;98871.81;5056459;28;20032;-48
2023/08/02 10:29:26;;;;;;;0.00;0.00;;;;;;;19.92;100.00;98872.00;5055423;28;20029;-50
2023/08/02 10:31:51;;;;;;;0.00;0.00;;;;;;;19.98;100.00;98868.31;5056406;28;20055;-49
2023/08/02 10:34:35;;;;;;;0.00;0.00;;;;;;;20.06;100.00;98867.09;5056219;28;20036;-49
2023/08/02 10:37:01;;;;;;;0.00;0.00;;;;;;;19.83;100.00;98859.31;5055215;28;20035;-49
2023/08/02 10:39:45;;;;;;;0.00;0.00;;;;;;;19.89;100.00;98859.91;5055896;28;20021;-47
2023/08/02 10:42:11;;;;;;;0.00;0.00;;;;;;;19.90;100.00;98852.94;5055911;28;20372;-50
2023/08/02 10:44:36;;;;;;;0.10;0.10;;;;;;;19.80;100.00;98848.97;5054611;28;20041;-48
2023/08/02 10:47:27;;;;;;;0.00;0.00;;;;;;;19.83;100.00;98848.84;5055908;28;20366;-47
2023/08/02 10:49:54;;;;;;;0.00;0.00;;;;;;;19.67;100.00;98843.38;5055284;28;20064;-49
2023/08/02 10:52:31;;;;;;;0.00;0.00;;;;;;;19.64;100.00;98843.47;5055776;28;20060;-49
2023/08/02 10:55:10;;;;;;;0.00;0.00;;;;;;;19.56;100.00;98856.84;5055838;28;20071;-51
2023/08/02 10:57:37;;;;;;;0.00;0.00;;;;;;;19.44;100.00;98857.34;5054652;28;20423;-50
2023/08/02 11:00:24;;;;;;;0.00;0.00;;;;;;;19.40;100.00;98857.44;5055677;28;20025;-51
2023/08/02 11:02:51;;;;;;;0.00;0.00;;;;;;;19.23;100.00;98828.53;5055771;28;20017;-50
2023/08/02 11:05:35;;;;;;;0.00;0.00;;;;;;;19.20;100.00;98823.44;5054783;28;20029;-46
2023/08/02 11:08:00;;;;;;;0.00;0.00;;;;;;;19.20;100.00;98824.28;5055358;28;20523;-49
2023/08/02 11:10:26;;;;;;;0.00;0.00;;;;;;;19.14;100.00;98813.22;5054977;28;20029;-47
2023/08/02 11:12:55;;;;;;;0.00;0.00;;;;;;;19.07;100.00;98823.06;5054888;28;20021;-49
2023/08/02 11:15:22;;;;;;;0.00;0.00;;;;;;;18.97;100.00;98827.75;5055231;28;20444;-47
2023/08/02 11:17:53;;;;;;;0.00;0.00;;;;;;;18.90;100.00;98836.72;5054315;28;20389;-46
2023/08/02 11:20:23;;;;;;;0.00;0.00;;;;;;;18.83;100.00;98838.66;5054940;28;20334;-50
2023/08/02 11:22:48;;;;;;;0.00;0.00;;;;;;;18.79;100.00;98831.03;5055029;28;20096;-45
2023/08/02 11:25:18;;;;;;;0.00;0.00;;;;;;;18.68;100.00;98837.47;5053378;28;20032;-50